createdAt,value
2018-06-05T00:01:50.150Z,16.00
2018-06-05T00:04:18.706Z,16.00
2018-06-05T00:06:47.214Z,16.00
2018-06-05T00:09:15.744Z,15.90
2018-06-05T00:11:44.195Z,15.90
2018-06-05T00:14:12.720Z,15.80
2018-06-05T00:16:41.176Z,15.80
2018-06-05T00:19:09.649Z,15.70
2018-06-05T00:21:38.497Z,15.70
2018-06-05T00:24:06.976Z,15.70
2018-06-05T00:26:35.435Z,15.70
2018-06-05T00:31:33.452Z,15.60
2018-06-05T00:34:01.908Z,15.50
2018-06-05T00:36:30.685Z,15.50
2018-06-05T00:38:59.144Z,15.50
2018-06-05T00:41:27.560Z,15.50
2018-06-05T00:43:56.087Z,15.50
2018-06-05T00:46:24.521Z,15.40
2018-06-05T00:48:53.059Z,15.40
2018-06-05T00:51:32.621Z,15.40
2018-06-05T00:54:01.117Z,15.30
2018-06-05T00:56:29.553Z,15.30
2018-06-05T00:58:58.132Z,15.30
2018-06-05T01:01:26.620Z,15.30
2018-06-05T01:03:55.428Z,15.30
2018-06-05T01:06:23.922Z,15.30
2018-06-05T01:08:52.408Z,15.30
2018-06-05T01:11:20.847Z,15.30
2018-06-05T01:13:49.332Z,15.20
2018-06-05T01:16:17.764Z,15.20
2018-06-05T01:18:46.239Z,15.20
2018-06-05T01:21:14.723Z,15.20
2018-06-05T01:23:43.193Z,15.50
2018-06-05T01:26:11.652Z,15.60
2018-06-05T01:28:40.424Z,15.70
2018-06-05T01:31:08.896Z,15.60
2018-06-05T01:33:37.380Z,15.50
2018-06-05T01:36:05.863Z,15.40
2018-06-05T01:38:34.320Z,15.40
2018-06-05T01:41:02.764Z,15.40
2018-06-05T01:43:32.096Z,15.50
2018-06-05T01:46:00.557Z,15.50
2018-06-05T01:48:29.041Z,15.50
2018-06-05T01:50:57.505Z,15.50
2018-06-05T01:53:25.953Z,15.50
2018-06-05T01:55:55.211Z,15.50
2018-06-05T01:58:23.660Z,15.50
2018-06-05T02:00:52.116Z,15.30
2018-06-05T02:03:20.585Z,15.30
2018-06-05T02:05:49.060Z,15.40
2018-06-05T02:08:17.505Z,15.30
2018-06-05T02:10:45.960Z,15.40
2018-06-05T02:13:14.472Z,15.40
2018-06-05T02:15:42.909Z,15.50
2018-06-05T02:18:11.350Z,15.50
2018-06-05T02:20:39.844Z,15.30
2018-06-05T02:23:08.285Z,15.30
2018-06-05T02:25:36.848Z,15.40
2018-06-05T02:28:05.337Z,15.40
2018-06-05T02:30:33.890Z,15.30
2018-06-05T02:33:02.325Z,15.40
2018-06-05T02:35:30.837Z,15.30
2018-06-05T02:37:59.391Z,15.20
2018-06-05T02:40:27.838Z,15.20
2018-06-05T02:42:56.304Z,15.30
2018-06-05T02:45:24.833Z,15.20
2018-06-05T02:47:53.285Z,15.30
2018-06-05T02:50:21.747Z,15.20
2018-06-05T02:52:50.225Z,15.20
2018-06-05T02:55:18.696Z,15.30
2018-06-05T02:57:47.225Z,15.40
2018-06-05T03:00:15.669Z,15.20
2018-06-05T03:02:44.117Z,15.10
2018-06-05T03:05:12.613Z,15.20
2018-06-05T03:07:41.029Z,15.20
2018-06-05T03:10:09.512Z,15.20
2018-06-05T03:12:37.973Z,15.20
2018-06-05T03:15:06.461Z,15.30
2018-06-05T03:17:34.909Z,15.20
2018-06-05T03:20:03.893Z,15.20
2018-06-05T03:22:32.359Z,15.30
2018-06-05T03:25:00.809Z,15.30
2018-06-05T03:27:29.301Z,15.30
2018-06-05T03:29:57.724Z,15.30
2018-06-05T03:32:26.161Z,15.30
2018-06-05T03:34:54.657Z,15.30
2018-06-05T03:37:23.470Z,15.30
2018-06-05T03:39:51.905Z,15.20
2018-06-05T03:49:45.598Z,15.30
2018-06-05T03:52:14.072Z,15.20
2018-06-05T03:54:42.534Z,15.20
2018-06-05T03:57:11.020Z,15.30
2018-06-05T03:59:39.485Z,15.30
2018-06-05T04:02:07.950Z,15.20
2018-06-05T04:04:36.458Z,15.20
2018-06-05T04:07:04.902Z,15.20
2018-06-05T04:09:33.360Z,15.20
2018-06-05T04:12:01.812Z,15.30
2018-06-05T04:14:30.701Z,15.40
2018-06-05T04:16:59.182Z,15.40
2018-06-05T04:19:27.707Z,15.40
2018-06-05T04:21:56.297Z,15.40
2018-06-05T04:24:24.814Z,15.30
2018-06-05T04:26:53.320Z,15.30
2018-06-05T04:31:50.269Z,15.40
2018-06-05T04:36:46.966Z,15.40
2018-06-05T04:39:15.425Z,15.30
2018-06-05T04:41:43.939Z,15.40
2018-06-05T04:44:12.393Z,15.40
2018-06-05T04:46:40.868Z,15.30
2018-06-05T04:49:09.357Z,15.30
2018-06-05T04:51:37.842Z,15.30
2018-06-05T04:54:06.353Z,15.40
2018-06-05T04:56:34.908Z,15.40
2018-06-05T04:59:03.380Z,15.40
2018-06-05T05:01:31.841Z,15.50
2018-06-05T05:04:00.460Z,15.60
2018-06-05T05:06:28.992Z,15.50
2018-06-05T05:08:57.444Z,15.40
2018-06-05T05:11:25.928Z,15.40
2018-06-05T05:13:54.408Z,15.50
2018-06-05T05:16:22.891Z,15.40
2018-06-05T05:18:51.482Z,15.60
2018-06-05T05:23:48.112Z,15.50
2018-06-05T05:26:16.561Z,15.60
2018-06-05T05:28:44.992Z,15.60
2018-06-05T05:33:41.740Z,15.50
2018-06-05T05:36:10.237Z,15.60
2018-06-05T05:38:38.744Z,15.50
2018-06-05T05:41:07.256Z,15.60
2018-06-05T05:43:35.785Z,15.70
2018-06-05T05:48:32.497Z,15.70
2018-06-05T05:51:00.996Z,15.70
2018-06-05T05:53:29.449Z,15.70
2018-06-05T05:55:58.098Z,15.70
2018-06-05T05:58:26.582Z,15.80
2018-06-05T06:00:55.231Z,15.70
2018-06-05T06:03:23.760Z,15.80
2018-06-05T06:05:52.269Z,15.60
2018-06-05T06:08:20.734Z,15.70
2018-06-05T06:10:49.194Z,15.70
2018-06-05T06:13:17.642Z,15.80
2018-06-05T06:15:46.109Z,15.80
2018-06-05T06:18:14.809Z,15.70
2018-06-05T06:20:43.353Z,15.70
2018-06-05T06:23:11.790Z,15.70
2018-06-05T06:25:40.250Z,15.80
2018-06-05T06:28:08.729Z,15.90
2018-06-05T06:30:37.184Z,16.00
2018-06-05T06:33:05.711Z,15.90
2018-06-05T06:35:34.177Z,15.80
2018-06-05T06:38:02.692Z,15.90
2018-06-05T06:40:31.324Z,15.90
2018-06-05T06:43:00.241Z,16.20
2018-06-05T06:45:29.053Z,16.00
2018-06-05T06:47:57.730Z,16.10
2018-06-05T06:50:26.220Z,16.10
2018-06-05T06:52:54.670Z,16.10
2018-06-05T06:55:23.134Z,16.10
2018-06-05T06:57:51.612Z,16.20
2018-06-05T07:00:20.115Z,16.20
2018-06-05T07:02:48.589Z,16.40
2018-06-05T07:05:17.070Z,16.50
2018-06-05T07:07:45.541Z,16.60
2018-06-05T07:10:14.108Z,16.80
2018-06-05T07:12:42.552Z,16.70
2018-06-05T07:15:10.988Z,16.90
2018-06-05T07:17:39.512Z,17.00
2018-06-05T07:20:07.973Z,17.00
2018-06-05T07:22:36.445Z,16.80
2018-06-05T07:25:04.964Z,16.80
2018-06-05T07:27:33.564Z,16.90
2018-06-05T07:30:01.997Z,17.20
2018-06-05T07:32:30.475Z,17.20
2018-06-05T07:34:58.953Z,17.20
2018-06-05T07:37:27.497Z,17.10
2018-06-05T07:39:56.009Z,17.20
2018-06-05T07:42:24.509Z,16.70
2018-06-05T07:44:53.067Z,16.70
2018-06-05T07:47:21.619Z,16.60
2018-06-05T07:49:50.094Z,16.70
2018-06-05T07:52:18.594Z,16.80
2018-06-05T07:54:47.229Z,16.90
2018-06-05T07:57:15.720Z,16.90
2018-06-05T07:59:44.277Z,16.90
2018-06-05T08:02:13.619Z,16.90
2018-06-05T08:04:42.097Z,16.90
2018-06-05T08:07:10.695Z,16.90
2018-06-05T08:09:39.157Z,17.00
2018-06-05T08:12:07.741Z,17.50
2018-06-05T08:14:36.386Z,17.50
2018-06-05T08:17:04.930Z,17.50
2018-06-05T08:19:33.435Z,17.50
2018-06-05T08:22:02.020Z,17.50
2018-06-05T08:24:30.628Z,17.50
2018-06-05T08:26:59.033Z,17.60
2018-06-05T08:29:27.504Z,17.80
2018-06-05T08:31:55.983Z,17.50
2018-06-05T08:34:24.408Z,17.70
2018-06-05T08:36:52.844Z,17.20
2018-06-05T08:39:21.609Z,17.20
2018-06-05T08:41:50.066Z,17.30
2018-06-05T08:44:18.540Z,17.50
2018-06-05T08:46:47.026Z,17.80
2018-06-05T08:49:15.528Z,17.70
2018-06-05T08:51:44.076Z,17.80
2018-06-05T08:54:12.617Z,17.60
2018-06-05T08:56:41.057Z,17.70
2018-06-05T08:59:09.488Z,17.70
2018-06-05T09:01:37.985Z,17.60
2018-06-05T09:04:06.480Z,17.60
2018-06-05T09:06:34.922Z,17.70
2018-06-05T09:09:06.138Z,17.60
2018-06-05T09:11:34.688Z,17.60
2018-06-05T09:14:03.170Z,17.60
2018-06-05T09:16:31.640Z,17.50
2018-06-05T09:19:00.140Z,17.50
2018-06-05T09:21:28.666Z,17.40
2018-06-05T09:23:57.184Z,17.60
2018-06-05T09:26:25.677Z,17.40
2018-06-05T09:28:54.218Z,17.30
2018-06-05T09:31:22.657Z,17.50
2018-06-05T09:36:19.218Z,17.60
2018-06-05T09:38:47.736Z,17.60
2018-06-05T09:41:16.386Z,17.60
2018-06-05T09:43:44.909Z,17.90
2018-06-05T09:46:13.409Z,17.80
2018-06-05T09:48:41.849Z,17.70
2018-06-05T09:51:12.220Z,17.40
2018-06-05T09:53:41.613Z,17.50
2018-06-05T09:56:10.066Z,17.50
2018-06-05T09:58:38.551Z,17.40
2018-06-05T10:01:07.027Z,17.40
2018-06-05T10:03:35.507Z,17.60
2018-06-05T10:06:03.991Z,17.80
2018-06-05T10:08:32.441Z,17.70
2018-06-05T10:11:00.902Z,17.70
2018-06-05T10:13:29.336Z,17.70
2018-06-05T10:15:57.899Z,17.70
2018-06-05T10:18:26.388Z,17.60
2018-06-05T10:20:54.929Z,17.70
2018-06-05T10:23:23.792Z,18.20
2018-06-05T10:25:52.292Z,17.90
2018-06-05T10:28:20.788Z,18.20
2018-06-05T10:30:49.333Z,18.50
2018-06-05T10:33:17.840Z,19.00
2018-06-05T10:35:46.385Z,18.90
2018-06-05T10:38:14.888Z,19.30
2018-06-05T10:40:43.371Z,19.50
2018-06-05T10:45:40.013Z,18.80
2018-06-05T10:48:08.527Z,18.70
2018-06-05T10:50:39.576Z,18.50
2018-06-05T10:53:08.612Z,18.70
2018-06-05T10:55:37.272Z,18.50
2018-06-05T10:58:06.009Z,18.60
2018-06-05T11:00:34.434Z,18.40
2018-06-05T11:03:02.910Z,18.60
2018-06-05T11:05:31.481Z,18.70
2018-06-05T11:07:59.997Z,18.70
2018-06-05T11:10:28.755Z,18.10
2018-06-05T11:12:57.308Z,18.10
2018-06-05T11:15:25.851Z,18.10
2018-06-05T11:17:54.312Z,18.30
2018-06-05T11:20:22.830Z,18.30
2018-06-05T11:22:51.298Z,18.20
2018-06-05T11:25:19.730Z,18.20
2018-06-05T11:27:48.192Z,18.20
2018-06-05T11:30:16.717Z,18.20
2018-06-05T11:32:45.181Z,18.20
2018-06-05T11:35:13.649Z,18.10
2018-06-05T11:37:42.129Z,18.60
2018-06-05T11:40:10.562Z,18.60
2018-06-05T11:42:39.085Z,18.90
2018-06-05T11:45:07.608Z,18.80
2018-06-05T11:47:36.066Z,18.70
2018-06-05T11:50:04.701Z,19.20
2018-06-05T11:52:33.130Z,18.90
2018-06-05T11:55:01.693Z,19.00
2018-06-05T11:57:30.151Z,18.90
2018-06-05T11:59:58.691Z,19.10
2018-06-05T12:02:27.198Z,19.20
2018-06-05T12:04:56.092Z,19.00
2018-06-05T12:07:24.528Z,19.10
2018-06-05T12:09:52.992Z,18.90
2018-06-05T12:12:21.464Z,19.20
2018-06-05T12:14:49.925Z,19.30
2018-06-05T12:17:18.427Z,19.50
2018-06-05T12:19:46.884Z,19.80
2018-06-05T12:22:15.357Z,19.10
2018-06-05T12:24:43.823Z,18.80
2018-06-05T12:27:12.354Z,19.20
2018-06-05T12:29:40.835Z,19.20
2018-06-05T12:32:09.294Z,19.60
2018-06-05T12:34:37.759Z,19.60
2018-06-05T12:37:06.349Z,20.10
2018-06-05T12:39:34.883Z,20.00
2018-06-05T12:42:03.390Z,19.80
2018-06-05T12:44:31.873Z,19.70
2018-06-05T12:47:00.406Z,19.90
2018-06-05T12:49:28.895Z,19.70
2018-06-05T12:51:57.332Z,19.40
2018-06-05T12:54:25.889Z,19.70
2018-06-05T12:56:54.376Z,19.90
2018-06-05T12:59:22.817Z,19.50
2018-06-05T13:01:51.328Z,19.20
2018-06-05T13:04:19.811Z,19.40
2018-06-05T13:06:48.268Z,19.80
2018-06-05T13:11:44.927Z,19.40
2018-06-05T13:14:13.337Z,19.60
2018-06-05T13:16:41.844Z,20.00
2018-06-05T13:19:10.333Z,19.60
2018-06-05T13:21:38.800Z,20.10
2018-06-05T13:24:07.356Z,20.20
2018-06-05T13:26:35.808Z,19.80
2018-06-05T13:29:04.249Z,20.30
2018-06-05T13:31:32.766Z,20.10
2018-06-05T13:34:01.206Z,19.80
2018-06-05T13:36:29.689Z,19.90
2018-06-05T13:38:58.200Z,19.60
2018-06-05T13:41:26.637Z,20.20
2018-06-05T13:43:55.099Z,20.30
2018-06-05T13:46:23.580Z,20.00
2018-06-05T13:48:52.012Z,20.00
2018-06-05T13:51:20.526Z,20.10
2018-06-05T13:53:49.205Z,20.30
2018-06-05T13:56:17.641Z,20.10
2018-06-05T13:58:46.213Z,19.90
2018-06-05T14:01:14.684Z,19.90
2018-06-05T14:03:43.250Z,20.20
2018-06-05T14:06:11.781Z,20.50
2018-06-05T14:11:08.717Z,20.50
2018-06-05T14:13:37.255Z,20.70
2018-06-05T14:16:06.163Z,20.20
2018-06-05T14:18:34.617Z,20.20
2018-06-05T14:21:03.088Z,19.90
2018-06-05T14:23:31.982Z,19.60
2018-06-05T14:26:00.520Z,19.70
2018-06-05T14:28:28.968Z,20.10
2018-06-05T14:30:57.472Z,19.70
2018-06-05T14:33:26.309Z,19.80
2018-06-05T14:35:54.833Z,20.20
2018-06-05T14:38:23.548Z,20.20
2018-06-05T14:40:52.001Z,20.50
2018-06-05T14:43:26.947Z,20.40
2018-06-05T14:45:55.523Z,20.00
2018-06-05T14:48:24.000Z,19.80
2018-06-05T14:50:52.492Z,19.50
2018-06-05T14:53:20.942Z,20.00
2018-06-05T14:55:49.443Z,19.60
2018-06-05T14:58:17.988Z,19.80
2018-06-05T15:00:46.453Z,19.90
2018-06-05T15:03:14.936Z,20.00
2018-06-05T15:05:43.389Z,19.80
2018-06-05T15:08:11.864Z,19.70
2018-06-05T15:10:40.328Z,19.30
2018-06-05T15:13:08.923Z,19.10
2018-06-05T15:15:37.361Z,19.30
2018-06-05T15:18:05.829Z,19.40
2018-06-05T15:20:34.300Z,19.50
2018-06-05T15:23:02.798Z,19.80
2018-06-05T15:25:31.389Z,19.70
2018-06-05T15:27:59.848Z,20.10
2018-06-05T15:30:28.296Z,20.20
2018-06-05T15:32:56.787Z,19.60
2018-06-05T15:35:25.249Z,19.70
2018-06-05T15:37:54.025Z,19.90
2018-06-05T15:40:22.517Z,19.40
2018-06-05T15:42:50.978Z,19.50
2018-06-05T15:45:19.457Z,19.40
2018-06-05T15:47:47.936Z,19.40
2018-06-05T15:50:16.428Z,19.50
2018-06-05T15:52:45.069Z,19.70
2018-06-05T15:55:14.193Z,20.00
2018-06-05T15:57:42.660Z,19.60
2018-06-05T16:00:11.109Z,19.90
2018-06-05T16:02:39.573Z,20.10
2018-06-05T16:05:08.045Z,19.60
2018-06-05T16:07:36.553Z,19.80
2018-06-05T16:10:05.097Z,19.80
2018-06-05T16:12:34.278Z,19.90
2018-06-05T16:15:02.749Z,19.90
2018-06-05T16:17:31.252Z,19.90
2018-06-05T16:19:59.684Z,20.20
2018-06-05T16:22:28.140Z,20.40
2018-06-05T16:24:56.587Z,20.40
2018-06-05T16:29:53.149Z,20.20
2018-06-05T16:32:21.625Z,20.00
2018-06-05T16:34:50.096Z,19.90
2018-06-05T16:37:18.533Z,19.90
2018-06-05T16:39:46.956Z,20.10
2018-06-05T16:42:15.424Z,20.30
2018-06-05T16:44:43.919Z,20.30
2018-06-05T16:47:12.410Z,20.40
2018-06-05T16:49:40.829Z,20.40
2018-06-05T16:52:09.265Z,20.10
2018-06-05T16:54:37.726Z,20.00
2018-06-05T16:57:06.269Z,20.20
2018-06-05T16:59:34.720Z,20.20
2018-06-05T17:02:03.209Z,20.30
2018-06-05T17:04:31.748Z,20.10
2018-06-05T17:07:00.117Z,20.10
2018-06-05T17:09:28.593Z,20.10
2018-06-05T17:11:57.072Z,20.20
2018-06-05T17:14:25.574Z,20.00
2018-06-05T17:16:54.058Z,20.10
2018-06-05T17:19:22.540Z,20.00
2018-06-05T17:21:51.026Z,19.90
2018-06-05T17:24:19.706Z,20.10
2018-06-05T17:26:48.163Z,20.00
2018-06-05T17:29:16.604Z,20.10
2018-06-05T17:31:45.219Z,20.10
2018-06-05T17:34:13.685Z,20.20
2018-06-05T17:36:42.136Z,20.20
2018-06-05T17:39:10.592Z,20.20
2018-06-05T17:41:39.160Z,20.10
2018-06-05T17:44:07.609Z,20.00
2018-06-05T17:46:36.138Z,20.00
2018-06-05T17:49:04.668Z,19.90
2018-06-05T17:54:01.332Z,20.00
2018-06-05T17:56:29.808Z,20.10
2018-06-05T17:58:58.240Z,19.80
2018-06-05T18:01:26.969Z,19.70
2018-06-05T18:03:55.457Z,19.80
2018-06-05T18:06:24.996Z,19.80
2018-06-05T18:08:53.519Z,19.80
2018-06-05T18:11:22.017Z,19.90
2018-06-05T18:13:50.537Z,19.80
2018-06-05T18:16:19.135Z,19.80
2018-06-05T18:18:47.628Z,19.80
2018-06-05T18:21:16.199Z,19.60
2018-06-05T18:23:44.656Z,19.70
2018-06-05T18:26:13.270Z,19.60
2018-06-05T18:28:41.764Z,19.70
2018-06-05T18:31:10.244Z,19.50
2018-06-05T18:33:38.736Z,19.40
2018-06-05T18:36:07.221Z,19.40
2018-06-05T18:41:03.937Z,19.30
2018-06-05T18:43:32.496Z,19.30
2018-06-05T18:46:00.966Z,19.30
2018-06-05T18:48:29.458Z,19.10
2018-06-05T18:50:58.004Z,19.10
2018-06-05T18:53:26.474Z,19.00
2018-06-05T18:55:55.749Z,18.90
2018-06-05T18:58:24.208Z,18.90
2018-06-05T19:00:52.717Z,18.90
2018-06-05T19:03:21.204Z,18.80
2018-06-05T19:05:49.692Z,18.70
2018-06-05T19:08:18.481Z,18.80
2018-06-05T19:10:47.093Z,18.70
2018-06-05T19:13:15.606Z,18.60
2018-06-05T19:15:44.144Z,18.50
2018-06-05T19:18:12.733Z,18.40
2018-06-05T19:20:41.213Z,18.40
2018-06-05T19:23:09.696Z,18.40
2018-06-05T19:25:38.181Z,18.30
2018-06-05T19:28:06.954Z,18.30
2018-06-05T19:30:35.479Z,18.20
2018-06-05T19:33:04.046Z,18.20
2018-06-05T19:35:32.564Z,18.10
2018-06-05T19:40:29.247Z,18.00
2018-06-05T19:42:57.719Z,17.90
2018-06-05T19:45:26.210Z,17.80
2018-06-05T19:47:54.658Z,17.80
2018-06-05T19:52:51.324Z,17.70
2018-06-05T19:55:19.835Z,17.60
2018-06-05T19:57:50.464Z,17.50
2018-06-05T20:00:18.954Z,17.50
2018-06-05T20:02:47.436Z,17.50
2018-06-05T20:05:15.956Z,17.40
2018-06-05T20:07:44.529Z,17.30
2018-06-05T20:10:13.002Z,17.30
2018-06-05T20:12:41.543Z,17.20
2018-06-05T20:15:10.015Z,17.20
2018-06-05T20:17:40.484Z,17.10
2018-06-05T20:20:09.014Z,17.10
2018-06-05T20:25:05.683Z,17.00
2018-06-05T20:27:34.265Z,16.90
2018-06-05T20:30:02.780Z,16.80
2018-06-05T20:32:31.227Z,16.80
2018-06-05T20:35:00.079Z,16.80
2018-06-05T20:37:28.544Z,16.80
2018-06-05T20:39:57.013Z,16.80
2018-06-05T20:42:25.504Z,16.70
2018-06-05T20:44:53.969Z,16.70
2018-06-05T20:47:22.449Z,16.70
2018-06-05T20:49:50.904Z,16.60
2018-06-05T20:52:19.553Z,16.60
2018-06-05T20:54:48.014Z,16.60
2018-06-05T20:57:16.487Z,16.50
2018-06-05T20:59:44.970Z,16.50
2018-06-05T21:02:13.408Z,16.50
2018-06-05T21:04:41.841Z,16.40
2018-06-05T21:07:10.329Z,16.40
2018-06-05T21:09:38.801Z,16.40
2018-06-05T21:14:35.537Z,16.40
2018-06-05T21:17:05.366Z,16.30
2018-06-05T21:19:33.893Z,16.30
2018-06-05T21:22:02.325Z,16.20
2018-06-05T21:26:59.000Z,16.10
2018-06-05T21:29:27.514Z,16.10
2018-06-05T21:31:55.964Z,16.10
2018-06-05T21:34:24.433Z,16.10
2018-06-05T21:36:52.940Z,16.00
2018-06-05T21:39:22.785Z,16.10
2018-06-05T21:41:51.246Z,16.00
2018-06-05T21:44:19.784Z,16.00
2018-06-05T21:46:48.372Z,15.90
2018-06-05T21:49:16.865Z,15.90
2018-06-05T21:51:45.349Z,15.90
2018-06-05T21:54:13.922Z,15.80
2018-06-05T21:56:42.496Z,15.80
2018-06-05T21:59:10.975Z,15.70
2018-06-05T22:01:39.533Z,15.70
2018-06-05T22:04:07.986Z,15.70
2018-06-05T22:06:36.424Z,15.60
2018-06-05T22:09:07.801Z,15.50
2018-06-05T22:11:36.301Z,15.40
2018-06-05T22:19:01.206Z,15.60
2018-06-05T22:21:29.777Z,15.50
2018-06-05T22:23:58.291Z,15.50
2018-06-05T22:26:26.833Z,15.50
2018-06-05T22:28:55.769Z,15.40
2018-06-05T22:31:24.229Z,15.40
2018-06-05T22:33:53.368Z,15.40
2018-06-05T22:36:21.809Z,15.30
2018-06-05T22:38:50.260Z,15.10
2018-06-05T22:41:18.737Z,15.10
2018-06-05T22:43:47.164Z,15.10
2018-06-05T22:46:15.732Z,14.90
2018-06-05T22:48:44.201Z,14.80
2018-06-05T22:51:12.621Z,14.80
2018-06-05T22:53:41.075Z,14.70
2018-06-05T22:56:09.528Z,14.70
2018-06-05T22:58:38.048Z,14.70
2018-06-05T23:01:06.549Z,14.70
2018-06-05T23:03:35.433Z,14.60
2018-06-05T23:06:03.900Z,14.50
2018-06-05T23:08:32.345Z,14.40
2018-06-05T23:11:00.816Z,14.30
2018-06-05T23:13:30.984Z,14.40
2018-06-05T23:15:59.473Z,14.40
2018-06-05T23:18:27.913Z,14.40
2018-06-05T23:20:56.369Z,14.40
2018-06-05T23:23:24.836Z,13.30
2018-06-05T23:25:53.276Z,14.30
2018-06-05T23:28:21.784Z,14.30
2018-06-05T23:30:50.346Z,14.20
2018-06-05T23:33:18.784Z,14.40
2018-06-05T23:35:47.267Z,14.30
2018-06-05T23:38:16.050Z,14.20
2018-06-05T23:40:44.729Z,14.10
2018-06-05T23:43:13.163Z,14.10
2018-06-05T23:45:41.624Z,14.10
2018-06-05T23:48:10.153Z,14.10
2018-06-05T23:50:38.641Z,14.20
2018-06-05T23:53:07.076Z,14.20
2018-06-05T23:55:35.566Z,14.20
2018-06-05T23:58:04.037Z,14.20
